Skeena-Queen Charlotte Regional District, British Columbia

10:41 PM PDT on August 30, 2016 (GMT -0700)
Sandspit | | Change Station

Elev 20 ft 53.25 °N, 131.81 °W | Updated 41 minutes ago

Overcast
Overcast
59 °F
Feels Like 59 °F
N
10
Wind Variable Wind from SSE

Today
High -- | Low -- °F
--% Chance of Precip.
Yesterday
High -- | Low -- °F
Precip. -- in
Pressure 29.84 in
Visibility 9.0 miles
Clouds Overcast 800 ft
Dew Point 57 °F
Humidity 94%
Rainfall 0.00 in
Snow Depth Not available.
6:58 AM 8:43 PM
Waning Crescent, 1% visible
METAR CYZP 310500Z AUTO 15009KT 9SM OVC008 15/14 A2983 RMK SLP103
Pressure 29.84 in
Visibility 9.0 miles
Clouds Overcast 800 ft
Dew Point 57 °F
Humidity 94%
Rainfall 0.00 in
Snow Depth Not available.
6:58 AM 8:43 PM
Waning Crescent, 1% visible
METAR CYZP 310500Z AUTO 15009KT 9SM OVC008 15/14 A2983 RMK SLP103

10-Day Weather Forecast

No radar image for this location.
×

Almanac

Astronomy

Aug. 30, 2016 Rise Set
Actual Time
Civil Twilight
Nautical Twilight
Astronomical Twilight
Moon
Length of Visible Light
Length of Day
Tomorrow will be .
, % of the Moon is Illuminated

Today's Extremes

Country Highs Country Lows

Community

WunderPhotos

Upload Photos

1,936,040 photos uploaded!

WunderBlog® & News

Nearby

Air Quality

  Air Quality AQ Index Pollutant
Not available.

Snow Depth

Station Depth Elevation

Earthquake Activity

City Distance Mag. Time & Date
Minimum magnitude displayed is 2.5.

Coastal Water Temperatures

Place Temperature

Stations

Nearby Weather Stations

Station Location Temp. Windchill Dew Point Humidity Wind Precip. Elev Updated Type
                   

Watches & Warnings

There are currently no watches in effect.